sensor_id;sensor_type;location;lat;lon;timestamp;temperature;humidity
3784;DHT22;1907;49.238;9.262;2022-12-16T00:01:39;-0.70;99.90
3784;DHT22;1907;49.238;9.262;2022-12-16T00:04:05;-0.70;99.90
3784;DHT22;1907;49.238;9.262;2022-12-16T00:06:32;-0.70;99.90
3784;DHT22;1907;49.238;9.262;2022-12-16T00:08:59;-0.70;99.90
3784;DHT22;1907;49.238;9.262;2022-12-16T00:11:25;-0.70;99.90
3784;DHT22;1907;49.238;9.262;2022-12-16T00:13:51;-0.60;99.90
3784;DHT22;1907;49.238;9.262;2022-12-16T00:16:18;-0.50;99.90
3784;DHT22;1907;49.238;9.262;2022-12-16T00:18:45;-0.50;99.90
3784;DHT22;1907;49.238;9.262;2022-12-16T00:21:11;-0.40;99.90
3784;DHT22;1907;49.238;9.262;2022-12-16T00:23:37;-0.40;99.90
3784;DHT22;1907;49.238;9.262;2022-12-16T00:26:09;-0.30;99.90
3784;DHT22;1907;49.238;9.262;2022-12-16T00:28:35;-0.30;99.90
3784;DHT22;1907;49.238;9.262;2022-12-16T00:31:00;-0.30;99.90
3784;DHT22;1907;49.238;9.262;2022-12-16T00:33:26;-0.20;99.90
3784;DHT22;1907;49.238;9.262;2022-12-16T00:35:53;-0.20;99.90
3784;DHT22;1907;49.238;9.262;2022-12-16T00:38:19;-0.20;99.90
3784;DHT22;1907;49.238;9.262;2022-12-16T00:40:44;-0.20;99.90
3784;DHT22;1907;49.238;9.262;2022-12-16T00:43:10;-0.20;99.90
3784;DHT22;1907;49.238;9.262;2022-12-16T00:45:36;-0.20;99.90
3784;DHT22;1907;49.238;9.262;2022-12-16T00:48:02;-0.20;99.90
3784;DHT22;1907;49.238;9.262;2022-12-16T00:50:28;-0.20;99.90
3784;DHT22;1907;49.238;9.262;2022-12-16T00:52:54;-0.20;99.90
3784;DHT22;1907;49.238;9.262;2022-12-16T00:55:19;-0.30;99.90
3784;DHT22;1907;49.238;9.262;2022-12-16T00:57:45;-0.40;99.90
3784;DHT22;1907;49.238;9.262;2022-12-16T01:00:13;-0.40;99.90
3784;DHT22;1907;49.238;9.262;2022-12-16T01:02:43;-0.50;99.90
3784;DHT22;1907;49.238;9.262;2022-12-16T01:05:11;-0.50;99.90
3784;DHT22;1907;49.238;9.262;2022-12-16T01:07:37;-0.50;99.90
3784;DHT22;1907;49.238;9.262;2022-12-16T01:10:04;-0.60;99.90
3784;DHT22;1907;49.238;9.262;2022-12-16T01:12:30;-0.60;99.90
3784;DHT22;1907;49.238;9.262;2022-12-16T01:14:56;-0.50;99.90
3784;DHT22;1907;49.238;9.262;2022-12-16T01:17:22;-0.50;99.90
3784;DHT22;1907;49.238;9.262;2022-12-16T01:19:50;-0.40;99.90
3784;DHT22;1907;49.238;9.262;2022-12-16T01:22:16;-0.40;99.90
3784;DHT22;1907;49.238;9.262;2022-12-16T01:24:43;-0.40;99.90
3784;DHT22;1907;49.238;9.262;2022-12-16T01:27:09;-0.40;99.90
3784;DHT22;1907;49.238;9.262;2022-12-16T01:29:35;-0.30;99.90
3784;DHT22;1907;49.238;9.262;2022-12-16T01:32:00;-0.20;99.90
3784;DHT22;1907;49.238;9.262;2022-12-16T01:34:26;-0.20;99.90
3784;DHT22;1907;49.238;9.262;2022-12-16T01:36:51;-0.20;99.90
3784;DHT22;1907;49.238;9.262;2022-12-16T01:39:17;-0.20;99.90
3784;DHT22;1907;49.238;9.262;2022-12-16T01:41:42;-0.20;99.90
3784;DHT22;1907;49.238;9.262;2022-12-16T01:44:19;-0.20;99.90
3784;DHT22;1907;49.238;9.262;2022-12-16T01:46:49;-0.20;99.90
3784;DHT22;1907;49.238;9.262;2022-12-16T01:49:26;-0.20;99.90
3784;DHT22;1907;49.238;9.262;2022-12-16T01:51:56;-0.20;99.90
3784;DHT22;1907;49.238;9.262;2022-12-16T01:54:29;-0.10;99.90
3784;DHT22;1907;49.238;9.262;2022-12-16T01:56:57;-0.10;99.90
3784;DHT22;1907;49.238;9.262;2022-12-16T01:59:27;-0.10;99.90
3784;DHT22;1907;49.238;9.262;2022-12-16T02:01:55;-0.10;99.90
3784;DHT22;1907;49.238;9.262;2022-12-16T02:04:20;-0.10;99.90
3784;DHT22;1907;49.238;9.262;2022-12-16T02:06:46;-0.10;99.90
3784;DHT22;1907;49.238;9.262;2022-12-16T02:09:13;-0.10;99.90
3784;DHT22;1907;49.238;9.262;2022-12-16T02:14:39;-0.10;99.90
3784;DHT22;1907;49.238;9.262;2022-12-16T02:17:57;-0.10;99.90
3784;DHT22;1907;49.238;9.262;2022-12-16T02:37:00;0.10;99.90
3784;DHT22;1907;49.238;9.262;2022-12-16T02:39:36;0.10;99.90
3784;DHT22;1907;49.238;9.262;2022-12-16T02:42:28;0.10;99.90
3784;DHT22;1907;49.238;9.262;2022-12-16T02:47:24;0.10;99.90
3784;DHT22;1907;49.238;9.262;2022-12-16T02:49:51;0.20;99.90
3784;DHT22;1907;49.238;9.262;2022-12-16T02:52:28;0.20;99.90
3784;DHT22;1907;49.238;9.262;2022-12-16T02:54:58;0.20;99.90
3784;DHT22;1907;49.238;9.262;2022-12-16T02:58:00;0.20;99.90
3784;DHT22;1907;49.238;9.262;2022-12-16T03:00:34;0.20;99.90
3784;DHT22;1907;49.238;9.262;2022-12-16T03:03:13;0.20;99.90
3784;DHT22;1907;49.238;9.262;2022-12-16T03:05:46;0.20;99.90
3784;DHT22;1907;49.238;9.262;2022-12-16T03:08:39;0.20;99.90
3784;DHT22;1907;49.238;9.262;2022-12-16T03:11:06;0.20;99.90
3784;DHT22;1907;49.238;9.262;2022-12-16T03:13:40;0.10;99.90
3784;DHT22;1907;49.238;9.262;2022-12-16T03:16:08;0.10;99.90
3784;DHT22;1907;49.238;9.262;2022-12-16T03:18:38;0.10;99.90
3784;DHT22;1907;49.238;9.262;2022-12-16T03:21:06;0.20;99.90
3784;DHT22;1907;49.238;9.262;2022-12-16T03:23:50;0.20;99.90
3784;DHT22;1907;49.238;9.262;2022-12-16T03:26:47;0.20;99.90
3784;DHT22;1907;49.238;9.262;2022-12-16T03:32:01;0.30;99.90
3784;DHT22;1907;49.238;9.262;2022-12-16T03:34:48;0.20;99.90
3784;DHT22;1907;49.238;9.262;2022-12-16T03:37:17;0.20;99.90
3784;DHT22;1907;49.238;9.262;2022-12-16T03:39:47;0.20;99.90
3784;DHT22;1907;49.238;9.262;2022-12-16T03:42:15;0.20;99.90
3784;DHT22;1907;49.238;9.262;2022-12-16T03:44:42;0.10;99.90
3784;DHT22;1907;49.238;9.262;2022-12-16T03:47:08;0.10;99.90
3784;DHT22;1907;49.238;9.262;2022-12-16T03:49:35;0.00;99.90
3784;DHT22;1907;49.238;9.262;2022-12-16T03:52:01;0.00;99.90
3784;DHT22;1907;49.238;9.262;2022-12-16T03:54:26;-0.10;99.90
3784;DHT22;1907;49.238;9.262;2022-12-16T03:56:52;-0.10;99.90
3784;DHT22;1907;49.238;9.262;2022-12-16T03:59:18;-0.10;99.90
3784;DHT22;1907;49.238;9.262;2022-12-16T04:01:44;-0.20;99.90
3784;DHT22;1907;49.238;9.262;2022-12-16T04:04:10;-0.10;99.90
3784;DHT22;1907;49.238;9.262;2022-12-16T04:06:36;-0.20;99.90
3784;DHT22;1907;49.238;9.262;2022-12-16T04:09:01;-0.20;99.90
3784;DHT22;1907;49.238;9.262;2022-12-16T04:11:27;-0.20;99.90
3784;DHT22;1907;49.238;9.262;2022-12-16T04:14:11;-0.20;99.90
3784;DHT22;1907;49.238;9.262;2022-12-16T04:16:56;-0.30;99.90
3784;DHT22;1907;49.238;9.262;2022-12-16T04:19:42;-0.30;99.90
3784;DHT22;1907;49.238;9.262;2022-12-16T04:22:42;-0.30;99.90
3784;DHT22;1907;49.238;9.262;2022-12-16T04:25:34;-0.40;99.90
3784;DHT22;1907;49.238;9.262;2022-12-16T04:28:00;-0.40;99.90
3784;DHT22;1907;49.238;9.262;2022-12-16T04:30:28;-0.40;99.90
3784;DHT22;1907;49.238;9.262;2022-12-16T04:32:58;-0.40;99.90
3784;DHT22;1907;49.238;9.262;2022-12-16T04:35:43;-0.40;99.90
3784;DHT22;1907;49.238;9.262;2022-12-16T04:38:27;-0.40;99.90
3784;DHT22;1907;49.238;9.262;2022-12-16T04:41:11;-0.40;99.90
3784;DHT22;1907;49.238;9.262;2022-12-16T04:43:55;-0.40;99.90
3784;DHT22;1907;49.238;9.262;2022-12-16T04:46:44;-0.40;99.90
3784;DHT22;1907;49.238;9.262;2022-12-16T04:49:28;-0.40;99.90
3784;DHT22;1907;49.238;9.262;2022-12-16T04:52:13;-0.40;99.90
3784;DHT22;1907;49.238;9.262;2022-12-16T04:54:57;-0.50;99.90
3784;DHT22;1907;49.238;9.262;2022-12-16T04:57:53;-0.50;99.90
3784;DHT22;1907;49.238;9.262;2022-12-16T05:00:38;-0.50;99.90
3784;DHT22;1907;49.238;9.262;2022-12-16T05:03:23;-0.50;99.90
3784;DHT22;1907;49.238;9.262;2022-12-16T05:06:07;-0.60;99.90
3784;DHT22;1907;49.238;9.262;2022-12-16T05:08:51;-0.60;99.90
3784;DHT22;1907;49.238;9.262;2022-12-16T05:11:35;-0.60;99.90
3784;DHT22;1907;49.238;9.262;2022-12-16T05:14:19;-0.60;99.90
3784;DHT22;1907;49.238;9.262;2022-12-16T05:17:04;-0.50;99.90
3784;DHT22;1907;49.238;9.262;2022-12-16T05:19:48;-0.50;99.90
3784;DHT22;1907;49.238;9.262;2022-12-16T05:22:32;-0.40;99.90
3784;DHT22;1907;49.238;9.262;2022-12-16T05:25:17;-0.40;99.90
3784;DHT22;1907;49.238;9.262;2022-12-16T05:28:01;-0.40;99.90
3784;DHT22;1907;49.238;9.262;2022-12-16T05:30:45;-0.30;99.90
3784;DHT22;1907;49.238;9.262;2022-12-16T05:33:29;-0.30;99.90
3784;DHT22;1907;49.238;9.262;2022-12-16T05:36:13;-0.30;99.90
3784;DHT22;1907;49.238;9.262;2022-12-16T05:38:57;-0.30;99.90
3784;DHT22;1907;49.238;9.262;2022-12-16T05:41:42;-0.30;99.90
3784;DHT22;1907;49.238;9.262;2022-12-16T05:44:26;-0.30;99.90
3784;DHT22;1907;49.238;9.262;2022-12-16T05:47:10;-0.30;99.90
3784;DHT22;1907;49.238;9.262;2022-12-16T05:49:54;-0.30;99.90
3784;DHT22;1907;49.238;9.262;2022-12-16T05:52:38;-0.30;99.90
3784;DHT22;1907;49.238;9.262;2022-12-16T05:55:22;-0.40;99.90
3784;DHT22;1907;49.238;9.262;2022-12-16T05:58:06;-0.40;99.90
3784;DHT22;1907;49.238;9.262;2022-12-16T06:00:50;-0.30;99.90
3784;DHT22;1907;49.238;9.262;2022-12-16T06:03:34;-0.30;99.90
3784;DHT22;1907;49.238;9.262;2022-12-16T06:06:19;-0.30;99.90
3784;DHT22;1907;49.238;9.262;2022-12-16T06:09:03;-0.20;99.90
3784;DHT22;1907;49.238;9.262;2022-12-16T06:11:47;-0.20;99.90
3784;DHT22;1907;49.238;9.262;2022-12-16T06:14:31;-0.20;99.90
3784;DHT22;1907;49.238;9.262;2022-12-16T06:17:15;-0.10;99.90
3784;DHT22;1907;49.238;9.262;2022-12-16T06:19:59;-0.10;99.90
3784;DHT22;1907;49.238;9.262;2022-12-16T06:22:49;0.00;99.90
3784;DHT22;1907;49.238;9.262;2022-12-16T06:25:33;0.00;99.90
3784;DHT22;1907;49.238;9.262;2022-12-16T06:28:17;0.00;99.90
3784;DHT22;1907;49.238;9.262;2022-12-16T06:31:01;0.00;99.90
3784;DHT22;1907;49.238;9.262;2022-12-16T06:33:53;0.10;99.90
3784;DHT22;1907;49.238;9.262;2022-12-16T06:36:37;0.10;99.90
3784;DHT22;1907;49.238;9.262;2022-12-16T06:39:22;0.10;99.90
3784;DHT22;1907;49.238;9.262;2022-12-16T06:42:06;0.10;99.90
3784;DHT22;1907;49.238;9.262;2022-12-16T06:44:50;0.10;99.90
3784;DHT22;1907;49.238;9.262;2022-12-16T06:47:34;0.10;99.90
3784;DHT22;1907;49.238;9.262;2022-12-16T06:50:18;0.10;99.90
3784;DHT22;1907;49.238;9.262;2022-12-16T06:53:03;0.10;99.90
3784;DHT22;1907;49.238;9.262;2022-12-16T06:55:47;0.10;99.90
3784;DHT22;1907;49.238;9.262;2022-12-16T06:58:31;0.10;99.90
3784;DHT22;1907;49.238;9.262;2022-12-16T07:01:15;0.00;99.90
3784;DHT22;1907;49.238;9.262;2022-12-16T07:03:59;0.10;99.90
3784;DHT22;1907;49.238;9.262;2022-12-16T07:06:44;0.10;99.90
3784;DHT22;1907;49.238;9.262;2022-12-16T07:09:28;0.10;99.90
3784;DHT22;1907;49.238;9.262;2022-12-16T07:12:13;0.10;99.90
3784;DHT22;1907;49.238;9.262;2022-12-16T07:14:57;0.10;99.90
3784;DHT22;1907;49.238;9.262;2022-12-16T07:17:43;0.10;99.90
3784;DHT22;1907;49.238;9.262;2022-12-16T07:20:27;0.10;99.90
3784;DHT22;1907;49.238;9.262;2022-12-16T07:23:11;0.10;99.90
3784;DHT22;1907;49.238;9.262;2022-12-16T07:25:55;0.10;99.90
3784;DHT22;1907;49.238;9.262;2022-12-16T07:28:40;0.10;99.90
3784;DHT22;1907;49.238;9.262;2022-12-16T07:31:24;0.10;99.90
3784;DHT22;1907;49.238;9.262;2022-12-16T07:34:08;0.20;99.90
3784;DHT22;1907;49.238;9.262;2022-12-16T07:36:51;0.20;99.90
3784;DHT22;1907;49.238;9.262;2022-12-16T07:39:36;0.20;99.90
3784;DHT22;1907;49.238;9.262;2022-12-16T07:42:20;0.20;99.90
3784;DHT22;1907;49.238;9.262;2022-12-16T07:45:04;0.20;99.90
3784;DHT22;1907;49.238;9.262;2022-12-16T07:47:49;0.30;99.90
3784;DHT22;1907;49.238;9.262;2022-12-16T07:50:35;0.30;99.90
3784;DHT22;1907;49.238;9.262;2022-12-16T07:53:20;0.30;99.90
3784;DHT22;1907;49.238;9.262;2022-12-16T07:56:04;0.40;99.90
3784;DHT22;1907;49.238;9.262;2022-12-16T07:58:48;0.40;99.90
3784;DHT22;1907;49.238;9.262;2022-12-16T08:01:32;0.40;99.90
3784;DHT22;1907;49.238;9.262;2022-12-16T08:04:16;0.40;99.90
3784;DHT22;1907;49.238;9.262;2022-12-16T08:07:00;0.50;99.90
3784;DHT22;1907;49.238;9.262;2022-12-16T08:09:44;0.50;99.90
3784;DHT22;1907;49.238;9.262;2022-12-16T08:12:28;0.50;99.90
3784;DHT22;1907;49.238;9.262;2022-12-16T08:15:12;0.50;99.90
3784;DHT22;1907;49.238;9.262;2022-12-16T08:17:56;0.50;99.90
3784;DHT22;1907;49.238;9.262;2022-12-16T08:20:40;0.50;99.90
3784;DHT22;1907;49.238;9.262;2022-12-16T08:23:24;0.50;99.90
3784;DHT22;1907;49.238;9.262;2022-12-16T08:26:09;0.50;99.90
3784;DHT22;1907;49.238;9.262;2022-12-16T08:28:53;0.50;99.90
3784;DHT22;1907;49.238;9.262;2022-12-16T08:31:37;0.50;99.90
3784;DHT22;1907;49.238;9.262;2022-12-16T08:34:21;0.60;99.90
3784;DHT22;1907;49.238;9.262;2022-12-16T08:37:05;0.60;99.90
3784;DHT22;1907;49.238;9.262;2022-12-16T08:39:49;0.60;99.90
3784;DHT22;1907;49.238;9.262;2022-12-16T08:42:33;0.70;99.80
3784;DHT22;1907;49.238;9.262;2022-12-16T08:45:17;0.70;99.70
3784;DHT22;1907;49.238;9.262;2022-12-16T08:48:01;0.70;99.80
3784;DHT22;1907;49.238;9.262;2022-12-16T08:50:45;0.80;99.50
3784;DHT22;1907;49.238;9.262;2022-12-16T08:53:30;0.80;99.60
3784;DHT22;1907;49.238;9.262;2022-12-16T08:56:14;0.80;99.10
3784;DHT22;1907;49.238;9.262;2022-12-16T08:58:58;0.80;98.50
3784;DHT22;1907;49.238;9.262;2022-12-16T09:01:42;0.80;98.10
3784;DHT22;1907;49.238;9.262;2022-12-16T09:04:26;0.80;98.40
3784;DHT22;1907;49.238;9.262;2022-12-16T09:07:10;0.80;97.90
3784;DHT22;1907;49.238;9.262;2022-12-16T09:09:54;0.80;98.00
3784;DHT22;1907;49.238;9.262;2022-12-16T09:12:38;0.70;98.40
3784;DHT22;1907;49.238;9.262;2022-12-16T09:15:22;0.70;98.70
3784;DHT22;1907;49.238;9.262;2022-12-16T09:18:06;0.60;98.30
3784;DHT22;1907;49.238;9.262;2022-12-16T09:20:51;0.60;98.10
3784;DHT22;1907;49.238;9.262;2022-12-16T09:23:36;0.60;98.40
3784;DHT22;1907;49.238;9.262;2022-12-16T09:26:20;0.60;98.00
3784;DHT22;1907;49.238;9.262;2022-12-16T09:29:04;0.60;98.60
3784;DHT22;1907;49.238;9.262;2022-12-16T09:31:48;0.70;98.30
3784;DHT22;1907;49.238;9.262;2022-12-16T09:34:32;0.80;98.40
3784;DHT22;1907;49.238;9.262;2022-12-16T09:37:16;0.90;98.60
3784;DHT22;1907;49.238;9.262;2022-12-16T09:40:01;1.00;98.30
3784;DHT22;1907;49.238;9.262;2022-12-16T09:43:10;1.00;98.60
3784;DHT22;1907;49.238;9.262;2022-12-16T09:46:21;1.00;97.40
3784;DHT22;1907;49.238;9.262;2022-12-16T09:49:36;1.10;97.50
3784;DHT22;1907;49.238;9.262;2022-12-16T09:52:23;1.10;97.00
3784;DHT22;1907;49.238;9.262;2022-12-16T09:56:01;1.20;96.80
3784;DHT22;1907;49.238;9.262;2022-12-16T09:58:57;1.30;96.60
3784;DHT22;1907;49.238;9.262;2022-12-16T10:01:43;1.40;97.00
3784;DHT22;1907;49.238;9.262;2022-12-16T10:04:27;1.40;96.60
3784;DHT22;1907;49.238;9.262;2022-12-16T10:07:17;1.50;96.80
3784;DHT22;1907;49.238;9.262;2022-12-16T10:22:26;1.70;97.60
3784;DHT22;1907;49.238;9.262;2022-12-16T10:25:25;1.80;97.60
3784;DHT22;1907;49.238;9.262;2022-12-16T10:28:41;1.90;97.90
3784;DHT22;1907;49.238;9.262;2022-12-16T10:31:27;2.00;97.30
3784;DHT22;1907;49.238;9.262;2022-12-16T10:34:14;2.10;96.70
3784;DHT22;1907;49.238;9.262;2022-12-16T10:36:59;2.20;97.20
3784;DHT22;1907;49.238;9.262;2022-12-16T10:39:57;2.40;97.60
3784;DHT22;1907;49.238;9.262;2022-12-16T10:42:55;2.40;96.90
3784;DHT22;1907;49.238;9.262;2022-12-16T10:45:48;2.50;97.00
3784;DHT22;1907;49.238;9.262;2022-12-16T10:48:32;2.60;96.40
3784;DHT22;1907;49.238;9.262;2022-12-16T10:51:19;2.70;96.40
3784;DHT22;1907;49.238;9.262;2022-12-16T10:57:41;2.80;96.00
3784;DHT22;1907;49.238;9.262;2022-12-16T11:00:39;2.90;96.90
3784;DHT22;1907;49.238;9.262;2022-12-16T11:03:29;2.90;97.20
3784;DHT22;1907;49.238;9.262;2022-12-16T11:06:25;2.90;96.50
3784;DHT22;1907;49.238;9.262;2022-12-16T11:12:21;3.00;96.20
3784;DHT22;1907;49.238;9.262;2022-12-16T11:15:29;3.00;95.80
3784;DHT22;1907;49.238;9.262;2022-12-16T11:18:15;3.00;96.30
3784;DHT22;1907;49.238;9.262;2022-12-16T11:21:26;3.00;95.40
3784;DHT22;1907;49.238;9.262;2022-12-16T11:24:15;3.00;96.30
3784;DHT22;1907;49.238;9.262;2022-12-16T11:27:23;3.10;96.30
3784;DHT22;1907;49.238;9.262;2022-12-16T11:32:58;3.00;96.20
3784;DHT22;1907;49.238;9.262;2022-12-16T11:35:47;3.00;96.00
3784;DHT22;1907;49.238;9.262;2022-12-16T11:38:40;3.00;96.60
3784;DHT22;1907;49.238;9.262;2022-12-16T11:41:35;3.00;96.80
3784;DHT22;1907;49.238;9.262;2022-12-16T11:44:41;3.00;96.90
3784;DHT22;1907;49.238;9.262;2022-12-16T11:50:19;3.00;97.00
3784;DHT22;1907;49.238;9.262;2022-12-16T11:53:08;3.00;96.90
3784;DHT22;1907;49.238;9.262;2022-12-16T11:55:56;3.00;97.00
3784;DHT22;1907;49.238;9.262;2022-12-16T11:58:45;3.10;97.20
3784;DHT22;1907;49.238;9.262;2022-12-16T12:01:38;3.10;96.90
3784;DHT22;1907;49.238;9.262;2022-12-16T12:04:25;3.00;96.20
3784;DHT22;1907;49.238;9.262;2022-12-16T12:16:25;3.00;96.70
3784;DHT22;1907;49.238;9.262;2022-12-16T12:19:20;3.00;96.70
3784;DHT22;1907;49.238;9.262;2022-12-16T12:22:40;2.90;96.90
3784;DHT22;1907;49.238;9.262;2022-12-16T12:35:18;2.90;97.50
3784;DHT22;1907;49.238;9.262;2022-12-16T12:38:15;2.90;96.90
3784;DHT22;1907;49.238;9.262;2022-12-16T12:41:13;3.00;97.00
3784;DHT22;1907;49.238;9.262;2022-12-16T12:46:54;3.00;97.10
3784;DHT22;1907;49.238;9.262;2022-12-16T12:56:03;3.00;97.10
3784;DHT22;1907;49.238;9.262;2022-12-16T12:58:50;2.90;97.00
3784;DHT22;1907;49.238;9.262;2022-12-16T13:01:40;2.90;97.30
3784;DHT22;1907;49.238;9.262;2022-12-16T13:04:26;2.80;97.60
3784;DHT22;1907;49.238;9.262;2022-12-16T13:07:11;2.80;97.20
3784;DHT22;1907;49.238;9.262;2022-12-16T13:10:31;2.80;97.30
3784;DHT22;1907;49.238;9.262;2022-12-16T13:16:10;2.70;97.20
3784;DHT22;1907;49.238;9.262;2022-12-16T13:22:34;2.70;97.60
3784;DHT22;1907;49.238;9.262;2022-12-16T13:29:01;2.60;97.90
3784;DHT22;1907;49.238;9.262;2022-12-16T13:32:02;2.60;97.80
3784;DHT22;1907;49.238;9.262;2022-12-16T13:35:16;2.60;97.90
3784;DHT22;1907;49.238;9.262;2022-12-16T13:41:05;2.50;98.00
3784;DHT22;1907;49.238;9.262;2022-12-16T13:43:57;2.40;97.70
3784;DHT22;1907;49.238;9.262;2022-12-16T13:52:50;2.30;98.40
3784;DHT22;1907;49.238;9.262;2022-12-16T13:58:39;2.20;98.20
3784;DHT22;1907;49.238;9.262;2022-12-16T14:01:33;2.20;98.20
3784;DHT22;1907;49.238;9.262;2022-12-16T14:07:24;2.10;98.60
3784;DHT22;1907;49.238;9.262;2022-12-16T14:10:30;2.10;98.60
3784;DHT22;1907;49.238;9.262;2022-12-16T14:19:34;2.00;98.70
3784;DHT22;1907;49.238;9.262;2022-12-16T14:25:18;2.10;99.00
3784;DHT22;1907;49.238;9.262;2022-12-16T14:31:05;2.10;98.60
3784;DHT22;1907;49.238;9.262;2022-12-16T14:33:54;2.00;98.10
3784;DHT22;1907;49.238;9.262;2022-12-16T14:36:39;2.00;97.70
3784;DHT22;1907;49.238;9.262;2022-12-16T14:39:29;1.80;97.70
3784;DHT22;1907;49.238;9.262;2022-12-16T14:42:26;1.70;97.70
3784;DHT22;1907;49.238;9.262;2022-12-16T14:48:24;1.50;98.20
3784;DHT22;1907;49.238;9.262;2022-12-16T14:51:29;1.40;97.70
3784;DHT22;1907;49.238;9.262;2022-12-16T14:54:20;1.40;97.80
3784;DHT22;1907;49.238;9.262;2022-12-16T14:57:13;1.30;98.00
3784;DHT22;1907;49.238;9.262;2022-12-16T15:05:52;1.30;97.80
3784;DHT22;1907;49.238;9.262;2022-12-16T15:08:48;1.30;97.80
3784;DHT22;1907;49.238;9.262;2022-12-16T15:11:38;1.20;97.80
3784;DHT22;1907;49.238;9.262;2022-12-16T15:14:29;1.30;97.40
3784;DHT22;1907;49.238;9.262;2022-12-16T15:17:39;1.20;97.60
3784;DHT22;1907;49.238;9.262;2022-12-16T15:20:26;1.30;97.80
3784;DHT22;1907;49.238;9.262;2022-12-16T15:23:31;1.30;97.80
3784;DHT22;1907;49.238;9.262;2022-12-16T15:26:24;1.20;97.70
3784;DHT22;1907;49.238;9.262;2022-12-16T15:29:35;1.20;98.10
3784;DHT22;1907;49.238;9.262;2022-12-16T15:40:57;1.20;97.90
3784;DHT22;1907;49.238;9.262;2022-12-16T15:43:44;1.20;97.70
3784;DHT22;1907;49.238;9.262;2022-12-16T15:46:31;1.20;97.50
3784;DHT22;1907;49.238;9.262;2022-12-16T15:49:16;1.20;97.90
3784;DHT22;1907;49.238;9.262;2022-12-16T15:52:01;1.20;97.90
3784;DHT22;1907;49.238;9.262;2022-12-16T15:54:53;1.20;98.30
3784;DHT22;1907;49.238;9.262;2022-12-16T15:57:38;1.30;99.20
3784;DHT22;1907;49.238;9.262;2022-12-16T16:00:27;1.30;99.90
3784;DHT22;1907;49.238;9.262;2022-12-16T16:06:02;1.40;99.90
3784;DHT22;1907;49.238;9.262;2022-12-16T16:08:50;1.40;99.90
3784;DHT22;1907;49.238;9.262;2022-12-16T16:11:35;1.30;99.90
3784;DHT22;1907;49.238;9.262;2022-12-16T16:14:19;1.30;99.90
3784;DHT22;1907;49.238;9.262;2022-12-16T16:17:18;1.30;99.90
3784;DHT22;1907;49.238;9.262;2022-12-16T16:20:03;1.20;99.90
3784;DHT22;1907;49.238;9.262;2022-12-16T16:22:47;1.20;99.90
3784;DHT22;1907;49.238;9.262;2022-12-16T16:25:31;1.20;99.90
3784;DHT22;1907;49.238;9.262;2022-12-16T16:28:16;1.20;99.90
3784;DHT22;1907;49.238;9.262;2022-12-16T16:31:00;1.10;99.90
3784;DHT22;1907;49.238;9.262;2022-12-16T16:33:44;1.10;99.90
3784;DHT22;1907;49.238;9.262;2022-12-16T16:36:28;1.10;99.90
3784;DHT22;1907;49.238;9.262;2022-12-16T16:39:12;1.00;99.90
3784;DHT22;1907;49.238;9.262;2022-12-16T16:41:56;0.90;99.90
3784;DHT22;1907;49.238;9.262;2022-12-16T16:44:40;0.80;99.90
3784;DHT22;1907;49.238;9.262;2022-12-16T16:47:24;0.90;99.90
3784;DHT22;1907;49.238;9.262;2022-12-16T16:50:13;0.80;99.90
3784;DHT22;1907;49.238;9.262;2022-12-16T16:52:57;0.90;99.90
3784;DHT22;1907;49.238;9.262;2022-12-16T16:55:42;0.90;99.90
3784;DHT22;1907;49.238;9.262;2022-12-16T16:58:28;0.80;99.90
3784;DHT22;1907;49.238;9.262;2022-12-16T17:01:14;0.80;99.90
3784;DHT22;1907;49.238;9.262;2022-12-16T17:03:58;0.80;99.90
3784;DHT22;1907;49.238;9.262;2022-12-16T17:06:42;0.80;99.90
3784;DHT22;1907;49.238;9.262;2022-12-16T17:09:26;0.80;99.90
3784;DHT22;1907;49.238;9.262;2022-12-16T17:12:22;0.70;99.90
3784;DHT22;1907;49.238;9.262;2022-12-16T17:15:20;0.70;99.90
3784;DHT22;1907;49.238;9.262;2022-12-16T17:18:05;0.60;99.90
3784;DHT22;1907;49.238;9.262;2022-12-16T17:20:50;0.50;99.90
3784;DHT22;1907;49.238;9.262;2022-12-16T17:23:34;0.40;99.90
3784;DHT22;1907;49.238;9.262;2022-12-16T17:26:18;0.30;99.90
3784;DHT22;1907;49.238;9.262;2022-12-16T17:29:03;0.20;99.90
3784;DHT22;1907;49.238;9.262;2022-12-16T17:31:48;0.10;99.90
3784;DHT22;1907;49.238;9.262;2022-12-16T17:34:32;0.00;99.90
3784;DHT22;1907;49.238;9.262;2022-12-16T17:37:16;-0.10;99.90
3784;DHT22;1907;49.238;9.262;2022-12-16T17:40:00;-0.20;99.90
3784;DHT22;1907;49.238;9.262;2022-12-16T17:42:44;-0.20;99.90
3784;DHT22;1907;49.238;9.262;2022-12-16T17:45:28;-0.30;99.90
3784;DHT22;1907;49.238;9.262;2022-12-16T17:48:12;-0.30;99.90
3784;DHT22;1907;49.238;9.262;2022-12-16T17:50:56;-0.30;99.90
3784;DHT22;1907;49.238;9.262;2022-12-16T17:53:40;-0.40;99.90
3784;DHT22;1907;49.238;9.262;2022-12-16T17:56:24;-0.40;99.90
3784;DHT22;1907;49.238;9.262;2022-12-16T17:59:08;-0.40;99.90
3784;DHT22;1907;49.238;9.262;2022-12-16T18:01:53;-0.40;99.90
3784;DHT22;1907;49.238;9.262;2022-12-16T18:04:42;-0.50;99.90
3784;DHT22;1907;49.238;9.262;2022-12-16T18:07:26;-0.50;99.90
3784;DHT22;1907;49.238;9.262;2022-12-16T18:10:10;-0.60;99.90
3784;DHT22;1907;49.238;9.262;2022-12-16T18:12:54;-0.70;99.90
3784;DHT22;1907;49.238;9.262;2022-12-16T18:15:39;-0.70;99.90
3784;DHT22;1907;49.238;9.262;2022-12-16T18:18:23;-0.80;99.90
3784;DHT22;1907;49.238;9.262;2022-12-16T18:21:09;-0.90;99.90
3784;DHT22;1907;49.238;9.262;2022-12-16T18:23:53;-1.00;99.90
3784;DHT22;1907;49.238;9.262;2022-12-16T18:26:37;-1.10;99.90
3784;DHT22;1907;49.238;9.262;2022-12-16T18:29:21;-1.10;99.90
3784;DHT22;1907;49.238;9.262;2022-12-16T18:32:05;-1.20;99.90
3784;DHT22;1907;49.238;9.262;2022-12-16T18:34:50;-1.30;99.90
3784;DHT22;1907;49.238;9.262;2022-12-16T18:37:34;-1.40;99.90
3784;DHT22;1907;49.238;9.262;2022-12-16T18:40:18;-1.40;99.90
3784;DHT22;1907;49.238;9.262;2022-12-16T18:43:07;-1.50;99.90
3784;DHT22;1907;49.238;9.262;2022-12-16T18:45:52;-1.50;99.90
3784;DHT22;1907;49.238;9.262;2022-12-16T18:48:36;-1.60;99.90
3784;DHT22;1907;49.238;9.262;2022-12-16T18:51:20;-1.60;99.90
3784;DHT22;1907;49.238;9.262;2022-12-16T18:54:04;-1.70;99.90
3784;DHT22;1907;49.238;9.262;2022-12-16T18:56:49;-1.70;99.90
3784;DHT22;1907;49.238;9.262;2022-12-16T18:59:33;-1.80;99.90
3784;DHT22;1907;49.238;9.262;2022-12-16T19:02:16;-1.80;99.90
3784;DHT22;1907;49.238;9.262;2022-12-16T19:05:01;-1.80;99.90
3784;DHT22;1907;49.238;9.262;2022-12-16T19:07:45;-1.80;99.90
3784;DHT22;1907;49.238;9.262;2022-12-16T19:10:29;-1.80;99.90
3784;DHT22;1907;49.238;9.262;2022-12-16T19:13:14;-1.80;99.90
3784;DHT22;1907;49.238;9.262;2022-12-16T19:15:58;-1.90;99.90
3784;DHT22;1907;49.238;9.262;2022-12-16T19:19:02;-1.90;99.90
3784;DHT22;1907;49.238;9.262;2022-12-16T19:21:47;-2.00;99.90
3784;DHT22;1907;49.238;9.262;2022-12-16T19:24:41;-2.00;99.90
3784;DHT22;1907;49.238;9.262;2022-12-16T19:27:25;-2.10;99.90
3784;DHT22;1907;49.238;9.262;2022-12-16T19:30:10;-2.10;99.90
3784;DHT22;1907;49.238;9.262;2022-12-16T19:32:54;-2.00;99.90
3784;DHT22;1907;49.238;9.262;2022-12-16T19:35:38;-2.00;99.90
3784;DHT22;1907;49.238;9.262;2022-12-16T19:38:22;-2.10;99.90
3784;DHT22;1907;49.238;9.262;2022-12-16T19:41:13;-2.10;99.90
3784;DHT22;1907;49.238;9.262;2022-12-16T19:43:57;-2.10;99.90
3784;DHT22;1907;49.238;9.262;2022-12-16T19:46:41;-2.10;99.90
3784;DHT22;1907;49.238;9.262;2022-12-16T19:49:25;-2.20;99.90
3784;DHT22;1907;49.238;9.262;2022-12-16T19:52:09;-2.10;99.90
3784;DHT22;1907;49.238;9.262;2022-12-16T19:54:53;-2.20;99.90
3784;DHT22;1907;49.238;9.262;2022-12-16T19:57:37;-2.20;99.90
3784;DHT22;1907;49.238;9.262;2022-12-16T20:00:22;-2.20;99.90
3784;DHT22;1907;49.238;9.262;2022-12-16T20:03:06;-2.30;99.90
3784;DHT22;1907;49.238;9.262;2022-12-16T20:06:02;-2.30;99.90
3784;DHT22;1907;49.238;9.262;2022-12-16T20:08:50;-2.40;99.90
3784;DHT22;1907;49.238;9.262;2022-12-16T20:11:34;-2.40;99.90
3784;DHT22;1907;49.238;9.262;2022-12-16T20:14:19;-2.50;99.90